Time;durP1;ratioP1;P1;durP2;ratioP2;P2;SDS_P1;SDS_P2;PMS_P1;PMS_P2;Temp;Humidity;BMP_temperature;BMP_pressure;BME280_temperature;BME280_humidity;BME280_pressure;Samples;Min_cycle;Max_cycle;Signal;HPM_P1;HPM_P2
2022/03/22 00:00:13;;;;;;;38.40;25.98;;;7.10;99.90;;;;;;5112353;28;20540;-63
2022/03/22 00:02:38;;;;;;;41.92;27.67;;;7.10;99.90;;;;;;5113062;28;20051;-63
2022/03/22 00:05:05;;;;;;;41.67;26.13;;;7.10;99.90;;;;;;5112952;28;20400;-63
2022/03/22 00:07:31;;;;;;;36.95;26.27;;;7.00;99.90;;;;;;5112855;28;20048;-63
2022/03/22 00:09:57;;;;;;;37.60;25.70;;;7.00;99.90;;;;;;5112891;28;20063;-63
2022/03/22 00:12:23;;;;;;;39.00;27.08;;;7.00;99.90;;;;;;5094206;28;20510;-64
2022/03/22 00:14:49;;;;;;;41.10;26.05;;;7.00;99.90;;;;;;5112932;28;20070;-64
2022/03/22 00:17:15;;;;;;;39.78;27.13;;;6.90;99.90;;;;;;5112496;28;20044;-64
2022/03/22 00:19:40;;;;;;;36.95;25.05;;;6.90;99.90;;;;;;5112664;28;20036;-63
2022/03/22 00:22:06;;;;;;;38.67;26.45;;;6.80;99.90;;;;;;5112680;28;20120;-63
2022/03/22 00:24:33;;;;;;;40.28;27.27;;;6.80;99.90;;;;;;5094513;28;20044;-63
2022/03/22 00:26:58;;;;;;;37.55;26.00;;;6.80;99.90;;;;;;5112741;28;20396;-63
2022/03/22 00:29:24;;;;;;;38.22;25.73;;;6.80;99.90;;;;;;5112143;28;20159;-63
2022/03/22 00:31:50;;;;;;;44.25;26.88;;;6.80;99.90;;;;;;5093981;28;20040;-65
2022/03/22 00:34:18;;;;;;;36.10;24.77;;;6.80;99.90;;;;;;5111743;28;20039;-63
2022/03/22 00:36:45;;;;;;;36.67;26.92;;;6.70;99.90;;;;;;5077481;28;20051;-63
2022/03/22 00:39:11;;;;;;;36.22;26.02;;;6.70;99.90;;;;;;5112075;28;20055;-63
2022/03/22 00:41:37;;;;;;;39.13;27.65;;;6.70;99.90;;;;;;5112738;28;20415;-63
2022/03/22 00:44:03;;;;;;;39.13;25.67;;;6.70;99.90;;;;;;5112401;28;20093;-64
2022/03/22 00:46:29;;;;;;;42.10;28.00;;;6.70;99.90;;;;;;5111948;28;20370;-64
2022/03/22 00:48:55;;;;;;;40.20;27.45;;;6.70;99.90;;;;;;5111627;28;20130;-64
2022/03/22 00:51:23;;;;;;;39.58;27.58;;;6.60;99.90;;;;;;5093894;28;20086;-64
2022/03/22 00:53:50;;;;;;;42.58;27.63;;;6.60;99.90;;;;;;5112187;28;20126;-63
2022/03/22 00:56:17;;;;;;;37.15;26.58;;;6.60;99.90;;;;;;5111914;28;20502;-63
2022/03/22 00:58:43;;;;;;;39.28;27.35;;;6.60;99.90;;;;;;5112021;28;20058;-64
2022/03/22 01:01:09;;;;;;;39.97;28.52;;;6.50;99.90;;;;;;5111790;28;20151;-62
2022/03/22 01:03:35;;;;;;;38.03;25.63;;;6.50;99.90;;;;;;5093710;28;20448;-62
2022/03/22 01:06:01;;;;;;;39.53;26.80;;;6.50;99.90;;;;;;5112088;28;20101;-62
2022/03/22 01:08:30;;;;;;;40.47;27.83;;;6.50;99.90;;;;;;5111628;28;20051;-63
2022/03/22 01:10:56;;;;;;;40.08;27.05;;;6.50;99.90;;;;;;5111927;28;20046;-63
2022/03/22 01:13:24;;;;;;;42.20;27.92;;;6.50;99.90;;;;;;5111383;28;20524;-63
2022/03/22 01:15:50;;;;;;;42.28;29.13;;;6.40;99.90;;;;;;5111952;28;20043;-63
2022/03/22 01:18:16;;;;;;;38.85;26.90;;;6.40;99.90;;;;;;5111544;28;20051;-63
2022/03/22 01:20:49;;;;;;;43.10;28.67;;;6.40;99.90;;;;;;5093777;28;20051;-63
2022/03/22 01:23:16;;;;;;;39.00;27.35;;;6.40;99.90;;;;;;5111499;28;20035;-65
2022/03/22 01:25:43;;;;;;;38.33;27.23;;;6.40;99.90;;;;;;5111843;28;20043;-63
2022/03/22 01:28:12;;;;;;;39.80;27.95;;;6.40;99.90;;;;;;5060324;28;20378;-63
2022/03/22 01:30:38;;;;;;;42.75;27.50;;;6.40;99.90;;;;;;5093426;28;20050;-63
2022/03/22 01:33:05;;;;;;;40.00;27.65;;;6.40;99.90;;;;;;5093520;28;20051;-64
2022/03/22 01:35:31;;;;;;;37.95;27.08;;;6.50;99.90;;;;;;5111376;28;20477;-63
2022/03/22 01:37:57;;;;;;;38.80;27.65;;;6.50;99.90;;;;;;5111766;28;20515;-63
2022/03/22 01:40:26;;;;;;;40.58;27.02;;;6.50;99.90;;;;;;5111240;28;20047;-63
2022/03/22 01:42:53;;;;;;;40.78;28.27;;;6.50;99.90;;;;;;5093620;28;20052;-63
2022/03/22 01:45:19;;;;;;;38.08;25.50;;;6.50;99.90;;;;;;5076421;28;20051;-63
2022/03/22 01:47:46;;;;;;;40.08;28.38;;;6.50;99.90;;;;;;5111676;28;20043;-63
2022/03/22 01:50:15;;;;;;;38.45;27.42;;;6.50;99.90;;;;;;5111648;28;20115;-64
2022/03/22 01:52:43;;;;;;;39.95;28.40;;;6.50;99.90;;;;;;5111346;28;20126;-63
2022/03/22 01:55:11;;;;;;;43.55;28.25;;;6.50;99.90;;;;;;5111123;28;20097;-63
2022/03/22 01:57:37;;;;;;;40.88;27.33;;;6.50;99.90;;;;;;5111276;28;20051;-63
2022/03/22 02:00:09;;;;;;;41.17;27.48;;;6.50;99.90;;;;;;5113569;28;20079;-63
2022/03/22 02:08:08;;;;;;;;;;;6.50;99.90;;;;;;5115837;28;20096;-63
2022/03/22 02:10:34;;;;;;;41.15;28.50;;;6.40;99.90;;;;;;5114949;28;19915;-64
2022/03/22 02:13:01;;;;;;;40.92;28.15;;;6.50;99.90;;;;;;5080541;28;20043;-64
2022/03/22 02:15:27;;;;;;;40.88;26.92;;;6.50;99.90;;;;;;5114413;28;20492;-63
2022/03/22 02:17:53;;;;;;;40.40;27.65;;;6.50;99.90;;;;;;5096853;28;20043;-64
2022/03/22 02:20:18;;;;;;;40.72;27.45;;;6.50;99.90;;;;;;5096408;28;20036;-62
2022/03/22 02:23:05;;;;;;;40.33;27.60;;;6.50;99.90;;;;;;5114604;28;20061;-63
2022/03/22 02:25:32;;;;;;;43.42;28.38;;;6.50;99.90;;;;;;5114532;28;20112;-63
2022/03/22 02:27:58;;;;;;;48.25;30.63;;;6.50;99.90;;;;;;5115030;28;20054;-63
2022/03/22 02:30:25;;;;;;;45.13;29.40;;;6.50;99.90;;;;;;5096596;28;20044;-63
2022/03/22 02:32:56;;;;;;;48.38;30.88;;;6.40;99.90;;;;;;5114913;28;20050;-63
2022/03/22 02:35:23;;;;;;;43.92;28.67;;;6.40;99.90;;;;;;5096545;28;20415;-63
2022/03/22 02:37:50;;;;;;;48.10;30.83;;;6.40;99.90;;;;;;5096680;28;20058;-62
2022/03/22 02:40:17;;;;;;;45.55;29.23;;;6.50;99.90;;;;;;5096268;28;20119;-63
2022/03/22 02:42:51;;;;;;;45.30;30.25;;;6.50;99.90;;;;;;5096341;28;20043;-62
2022/03/22 02:45:23;;;;;;;42.22;28.80;;;6.50;99.90;;;;;;5114687;28;20413;-62
2022/03/22 02:47:49;;;;;;;43.38;30.40;;;6.60;99.90;;;;;;5114255;28;20055;-63
2022/03/22 02:50:15;;;;;;;45.85;30.00;;;6.50;99.90;;;;;;5114271;28;20036;-64
2022/03/22 02:52:41;;;;;;;42.60;27.55;;;6.60;99.90;;;;;;5114127;28;20043;-63
2022/03/22 02:55:10;;;;;;;46.40;29.33;;;6.50;99.90;;;;;;5114347;28;20100;-62
2022/03/22 02:57:38;;;;;;;38.63;27.50;;;6.50;99.90;;;;;;5113991;28;20066;-63
2022/03/22 03:00:11;;;;;;;42.83;28.85;;;6.50;99.90;;;;;;5079585;28;20051;-62
2022/03/22 03:02:46;;;;;;;42.92;31.40;;;6.50;99.90;;;;;;5114055;28;20066;-62
2022/03/22 03:05:12;;;;;;;;;;;6.50;99.90;;;;;;5114503;28;20404;-63
2022/03/22 03:07:38;;;;;;;45.90;30.38;;;6.50;99.90;;;;;;5113568;28;20002;-63
2022/03/22 03:10:06;;;;;;;46.95;30.98;;;6.40;99.90;;;;;;5114163;28;20051;-63
2022/03/22 03:12:31;;;;;;;43.72;28.65;;;6.40;99.90;;;;;;5113130;28;20127;-63
2022/03/22 03:14:57;;;;;;;42.70;29.23;;;6.30;99.90;;;;;;5113854;28;20047;-63
2022/03/22 03:17:23;;;;;;;37.67;27.38;;;6.30;99.90;;;;;;5114196;28;20039;-62
2022/03/22 03:19:49;;;;;;;43.25;30.52;;;6.30;99.90;;;;;;5113686;28;20102;-62
2022/03/22 03:22:15;;;;;;;47.17;30.17;;;6.30;99.90;;;;;;5095745;28;20393;-63
2022/03/22 03:24:40;;;;;;;45.97;31.27;;;6.30;99.90;;;;;;5113669;28;20043;-64
2022/03/22 03:27:06;;;;;;;44.42;28.23;;;6.30;99.90;;;;;;5095534;28;20051;-63
2022/03/22 03:29:32;;;;;;;42.83;27.90;;;6.30;99.90;;;;;;5095445;28;20051;-63
2022/03/22 03:31:58;;;;;;;39.72;26.98;;;6.30;99.90;;;;;;5113793;28;20046;-63
2022/03/22 03:34:24;;;;;;;43.65;29.40;;;6.30;99.90;;;;;;5113673;28;20039;-63
2022/03/22 03:36:50;;;;;;;45.65;28.42;;;6.30;99.90;;;;;;5113279;28;20409;-63
2022/03/22 03:39:16;;;;;;;41.47;28.88;;;6.20;99.90;;;;;;5095358;28;20389;-63
2022/03/22 03:41:54;;;;;;;41.50;28.98;;;6.30;99.90;;;;;;5095138;28;20071;-63
2022/03/22 03:47:15;;;;;;;40.85;26.65;;;6.30;99.90;;;;;;5113465;28;20057;-63
2022/03/22 03:49:47;;;;;;;41.53;27.75;;;6.30;99.90;;;;;;5113025;28;20043;-62
2022/03/22 03:52:18;;;;;;;41.15;27.25;;;6.30;99.90;;;;;;5095376;28;20104;-63
2022/03/22 03:54:44;;;;;;;44.35;28.33;;;6.30;99.90;;;;;;5112981;28;20063;-63
2022/03/22 03:57:11;;;;;;;39.17;28.05;;;6.30;99.90;;;;;;5113110;28;20388;-62
2022/03/22 03:59:38;;;;;;;39.92;26.15;;;6.30;99.90;;;;;;5077976;28;20047;-62
2022/03/22 04:02:08;;;;;;;40.50;28.20;;;6.30;99.90;;;;;;5113035;28;20480;-63
2022/03/22 04:04:37;;;;;;;39.80;26.55;;;6.30;99.90;;;;;;5095077;28;20051;-63
2022/03/22 04:07:05;;;;;;;42.88;28.50;;;6.30;99.90;;;;;;5094877;28;20047;-63
2022/03/22 04:09:31;;;;;;;40.30;27.83;;;6.30;99.90;;;;;;5094795;28;20047;-62
2022/03/22 04:11:57;;;;;;;38.28;27.08;;;6.30;99.90;;;;;;5112623;28;20072;-62
2022/03/22 04:14:23;;;;;;;43.08;28.73;;;6.30;99.90;;;;;;5112998;28;20163;-62
2022/03/22 04:16:51;;;;;;;42.72;28.55;;;6.40;99.90;;;;;;5094161;28;20043;-62
2022/03/22 04:19:18;;;;;;;43.78;28.10;;;6.30;99.90;;;;;;5112569;28;20185;-63
2022/03/22 04:21:45;;;;;;;44.00;30.00;;;6.30;99.90;;;;;;5112399;28;20046;-62
2022/03/22 04:24:11;;;;;;;38.88;27.30;;;6.30;99.90;;;;;;5093532;28;20085;-62
2022/03/22 04:26:42;;;;;;;41.42;28.73;;;6.30;99.90;;;;;;5112343;28;20170;-65
2022/03/22 04:34:39;;;;;;;39.38;27.35;;;6.30;99.90;;;;;;5112057;28;20089;-63
2022/03/22 04:37:06;;;;;;;43.28;27.67;;;6.30;99.90;;;;;;5094359;28;20146;-62
2022/03/22 04:39:33;;;;;;;42.25;27.23;;;6.30;99.90;;;;;;5112250;28;20047;-64
2022/03/22 04:42:00;;;;;;;42.00;26.30;;;6.40;99.90;;;;;;5094011;28;20051;-63
2022/03/22 04:44:27;;;;;;;42.97;27.55;;;6.50;99.90;;;;;;5094171;28;20134;-63
2022/03/22 04:46:53;;;;;;;38.55;26.60;;;6.40;99.90;;;;;;5111855;28;20043;-63
2022/03/22 04:49:20;;;;;;;39.95;25.98;;;6.40;99.90;;;;;;5112056;28;20070;-63
2022/03/22 04:57:15;;;;;;;40.67;27.33;;;6.40;99.90;;;;;;5112101;28;20089;-62
2022/03/22 04:59:42;;;;;;;41.97;27.63;;;6.40;99.90;;;;;;5111638;28;20067;-66
2022/03/22 05:02:09;;;;;;;38.83;26.98;;;6.40;99.90;;;;;;5111479;28;20066;-62
2022/03/22 05:04:35;;;;;;;42.67;27.67;;;6.40;99.90;;;;;;5112102;28;20101;-63
2022/03/22 05:07:00;;;;;;;39.10;26.85;;;6.40;99.90;;;;;;5111661;28;20374;-62
2022/03/22 05:09:28;;;;;;;41.47;27.92;;;6.40;99.90;;;;;;5111918;28;20092;-62
2022/03/22 05:11:55;;;;;;;40.30;25.67;;;6.40;99.90;;;;;;5111626;28;20126;-63
2022/03/22 05:14:21;;;;;;;42.20;26.83;;;6.40;99.90;;;;;;5111953;28;20043;-63
2022/03/22 05:16:47;;;;;;;37.90;26.08;;;6.40;99.90;;;;;;5111625;28;20060;-63
2022/03/22 05:19:15;;;;;;;39.85;27.70;;;6.40;99.90;;;;;;5111909;28;20249;-62
2022/03/22 05:21:41;;;;;;;41.88;29.25;;;6.30;99.90;;;;;;5111891;28;20356;-62
2022/03/22 05:24:08;;;;;;;36.53;24.58;;;6.30;99.90;;;;;;5111543;28;20176;-63
2022/03/22 05:26:34;;;;;;;39.92;26.98;;;6.30;99.90;;;;;;5111844;28;20050;-62
2022/03/22 05:29:04;;;;;;;40.40;26.35;;;6.30;99.90;;;;;;5111544;28;20357;-62
2022/03/22 05:31:31;;;;;;;38.80;27.00;;;6.30;99.90;;;;;;5111860;28;20051;-63
2022/03/22 05:33:57;;;;;;;49.05;27.95;;;6.30;99.90;;;;;;5111882;28;20165;-63
2022/03/22 05:36:23;;;;;;;36.30;25.60;;;6.30;99.90;;;;;;5097909;28;20095;-63
2022/03/22 05:38:49;;;;;;;40.15;27.85;;;6.30;99.90;;;;;;5115649;28;20380;-63
2022/03/22 05:41:15;;;;;;;40.55;27.85;;;6.30;99.90;;;;;;5115580;28;20046;-63
2022/03/22 05:43:41;;;;;;;39.67;24.85;;;6.30;99.90;;;;;;5115536;28;20050;-63
2022/03/22 05:46:08;;;;;;;42.75;28.13;;;6.30;99.90;;;;;;5115360;28;20142;-62
2022/03/22 05:48:34;;;;;;;35.58;24.83;;;6.20;99.90;;;;;;5115657;28;20160;-63
2022/03/22 05:51:00;;;;;;;35.33;23.25;;;6.30;99.90;;;;;;5115192;28;20123;-62
2022/03/22 05:53:25;;;;;;;40.40;27.05;;;6.30;99.90;;;;;;5080526;28;20043;-63
2022/03/22 05:55:51;;;;;;;40.20;25.35;;;6.30;99.90;;;;;;5080176;28;20051;-63
2022/03/22 05:58:17;;;;;;;41.28;26.85;;;6.30;99.90;;;;;;5115070;28;20083;-63
2022/03/22 06:00:43;;;;;;;35.30;22.73;;;6.30;99.90;;;;;;5114995;28;20039;-64
2022/03/22 06:03:09;;;;;;;36.95;23.38;;;6.30;99.90;;;;;;5115134;28;20047;-63
2022/03/22 06:05:34;;;;;;;41.33;24.90;;;6.40;99.90;;;;;;5096898;28;20433;-63
2022/03/22 06:08:00;;;;;;;43.00;26.67;;;6.40;99.90;;;;;;5096240;28;20053;-63
2022/03/22 06:10:27;;;;;;;34.22;23.67;;;6.40;99.90;;;;;;5114823;28;20051;-63
2022/03/22 06:12:55;;;;;;;43.80;26.85;;;6.50;99.90;;;;;;5096769;28;20094;-64
2022/03/22 06:15:22;;;;;;;40.05;26.05;;;6.50;99.90;;;;;;5114837;28;20083;-63
2022/03/22 06:18:02;;;;;;;42.45;25.83;;;6.50;99.90;;;;;;5096172;28;20134;-63
2022/03/22 06:20:33;;;;;;;42.30;27.27;;;6.60;99.90;;;;;;5114649;28;20122;-64
2022/03/22 06:23:01;;;;;;;40.15;25.58;;;6.60;99.90;;;;;;5114644;28;20039;-63
2022/03/22 06:25:27;;;;;;;44.08;25.30;;;6.60;99.90;;;;;;5114724;28;20058;-64
2022/03/22 06:27:54;;;;;;;41.30;27.08;;;6.70;99.90;;;;;;5114279;28;20050;-64
2022/03/22 06:30:21;;;;;;;41.70;25.17;;;6.70;99.90;;;;;;5114643;28;20376;-64
2022/03/22 06:32:57;;;;;;;38.22;26.20;;;6.80;99.90;;;;;;5114729;28;20104;-63
2022/03/22 06:35:28;;;;;;;38.50;26.13;;;6.80;99.90;;;;;;5114853;28;20074;-63
2022/03/22 06:37:55;;;;;;;37.30;25.02;;;6.90;99.90;;;;;;5114311;28;20047;-65
2022/03/22 06:40:22;;;;;;;41.42;27.75;;;6.90;99.90;;;;;;5114305;28;20036;-64
2022/03/22 06:42:48;;;;;;;42.05;27.20;;;6.90;99.90;;;;;;5114528;28;20040;-64
2022/03/22 06:45:15;;;;;;;39.45;26.42;;;7.00;99.90;;;;;;5113981;28;20048;-64
2022/03/22 06:47:42;;;;;;;36.20;25.52;;;7.00;99.90;;;;;;5079005;28;20043;-64
2022/03/22 06:50:13;;;;;;;40.67;27.95;;;7.10;99.90;;;;;;5113983;28;20123;-64
2022/03/22 06:52:39;;;;;;;40.17;25.75;;;7.10;99.90;;;;;;5079856;28;20058;-63
2022/03/22 06:55:06;;;;;;;49.47;24.52;;;7.20;99.90;;;;;;5079108;28;20150;-64
2022/03/22 06:57:32;;;;;;;44.20;27.90;;;7.20;99.90;;;;;;5114389;28;20409;-62
2022/03/22 07:00:00;;;;;;;42.85;25.73;;;7.30;99.90;;;;;;5113662;28;20040;-63
2022/03/22 07:02:26;;;;;;;42.53;25.85;;;7.40;99.90;;;;;;5114255;28;20404;-63
2022/03/22 07:04:52;;;;;;;43.00;26.33;;;7.40;99.90;;;;;;5114243;28;20082;-64
2022/03/22 07:07:18;;;;;;;40.55;27.00;;;7.40;99.90;;;;;;5113841;28;20079;-64
2022/03/22 07:09:44;;;;;;;37.88;27.13;;;7.50;99.90;;;;;;5114042;28;20198;-63
2022/03/22 07:12:10;;;;;;;37.53;25.90;;;7.50;99.90;;;;;;5113535;28;20143;-63
2022/03/22 07:14:38;;;;;;;39.72;26.92;;;7.60;99.90;;;;;;5113685;28;20043;-63
2022/03/22 07:17:05;;;;;;;46.05;27.80;;;7.80;99.90;;;;;;5113333;28;20482;-63
2022/03/22 07:19:31;;;;;;;42.83;26.83;;;7.90;99.90;;;;;;5113581;28;20039;-62
2022/03/22 07:21:59;;;;;;;40.75;26.42;;;7.90;99.90;;;;;;5113426;28;20059;-64
2022/03/22 07:24:25;;;;;;;40.65;26.63;;;8.00;99.90;;;;;;5095728;28;20087;-63
2022/03/22 07:26:51;;;;;;;41.50;26.83;;;8.10;99.90;;;;;;5113806;28;20087;-63
2022/03/22 07:29:16;;;;;;;41.78;26.58;;;8.10;99.90;;;;;;5113275;28;20052;-63
2022/03/22 07:31:42;;;;;;;36.50;25.45;;;8.20;99.90;;;;;;5095455;28;20039;-64
2022/03/22 07:34:11;;;;;;;39.42;26.08;;;8.20;99.90;;;;;;5113272;28;20096;-64
2022/03/22 07:36:39;;;;;;;46.47;27.85;;;8.30;99.90;;;;;;5078660;28;20048;-64
2022/03/22 07:39:06;;;;;;;43.20;26.88;;;8.30;99.90;;;;;;5113166;28;20055;-64
2022/03/22 07:41:33;;;;;;;36.33;26.27;;;8.40;99.90;;;;;;5113429;28;20075;-64
2022/03/22 07:44:01;;;;;;;37.47;27.17;;;8.60;99.90;;;;;;5113097;28;20066;-64
2022/03/22 07:46:27;;;;;;;39.38;27.13;;;8.90;99.90;;;;;;5113446;28;20063;-64
2022/03/22 07:48:54;;;;;;;42.88;26.60;;;9.20;99.90;;;;;;5113272;28;20473;-64
2022/03/22 07:54:04;;;;;;;40.30;26.48;;;9.60;99.90;;;;;;5097011;28;20083;-63
2022/03/22 07:56:30;;;;;;;37.08;27.27;;;9.90;99.90;;;;;;5112866;28;20082;-64
2022/03/22 07:58:57;;;;;;;39.42;26.70;;;10.10;99.90;;;;;;5112898;28;20070;-66
2022/03/22 08:01:24;;;;;;;40.28;27.35;;;10.50;99.90;;;;;;5090598;28;20059;-64
2022/03/22 08:03:51;;;;;;;36.22;25.70;;;11.20;99.90;;;;;;5092337;28;20060;-65
2022/03/22 08:06:17;;;;;;;35.65;26.58;;;12.10;99.90;;;;;;5090506;28;20063;-63
2022/03/22 08:08:44;;;;;;;35.33;24.65;;;13.00;99.90;;;;;;5092267;28;20055;-64
2022/03/22 08:11:11;;;;;;;36.47;25.25;;;13.80;99.90;;;;;;5091954;28;20435;-63
2022/03/22 08:13:38;;;;;;;37.83;25.85;;;14.40;99.90;;;;;;5092282;28;20055;-62
2022/03/22 08:16:05;;;;;;;37.47;25.42;;;15.10;99.90;;;;;;5091441;28;20496;-63
2022/03/22 08:18:31;;;;;;;35.30;24.73;;;15.70;99.90;;;;;;5092423;28;20059;-63
2022/03/22 08:20:56;;;;;;;40.42;27.08;;;16.20;99.60;;;;;;5091171;28;20393;-63
2022/03/22 08:23:23;;;;;;;31.83;25.35;;;16.70;97.90;;;;;;5092121;28;20040;-62
2022/03/22 08:25:50;;;;;;;35.30;25.00;;;16.90;99.30;;;;;;5092256;28;20231;-63
2022/03/22 08:28:18;;;;;;;33.33;25.70;;;16.80;99.30;;;;;;5091892;28;20055;-63
2022/03/22 08:30:44;;;;;;;35.45;24.73;;;16.30;96.10;;;;;;5092216;28;20086;-63
2022/03/22 08:33:11;;;;;;;36.65;25.90;;;15.90;96.90;;;;;;5091858;28;20501;-63
2022/03/22 08:35:41;;;;;;;32.00;23.88;;;15.50;97.50;;;;;;5092078;28;20058;-64
2022/03/22 08:38:08;;;;;;;52.72;25.17;;;15.30;98.70;;;;;;5092138;28;20052;-63
2022/03/22 08:40:34;;;;;;;39.30;25.48;;;14.90;99.40;;;;;;5090822;28;20343;-63
2022/03/22 08:43:02;;;;;;;36.50;24.60;;;14.60;98.90;;;;;;5091868;28;20044;-63
2022/03/22 08:45:32;;;;;;;34.83;24.98;;;14.50;99.80;;;;;;5091545;28;20058;-64
2022/03/22 08:47:59;;;;;;;35.28;25.67;;;14.30;99.20;;;;;;5091868;28;20083;-63
2022/03/22 08:50:25;;;;;;;34.97;24.42;;;14.20;99.20;;;;;;5091493;28;20044;-64
2022/03/22 08:52:51;;;;;;;40.67;25.63;;;14.30;99.60;;;;;;5091877;28;20048;-64
2022/03/22 08:55:18;;;;;;;31.38;24.02;;;14.70;99.50;;;;;;5091320;28;20135;-63
2022/03/22 08:57:47;;;;;;;33.35;23.55;;;15.20;98.40;;;;;;5091690;28;20048;-64
2022/03/22 09:00:14;;;;;;;34.42;24.38;;;15.80;98.00;;;;;;5091242;28;20040;-64
2022/03/22 09:02:46;;;;;;;38.03;23.38;;;16.20;96.00;;;;;;5109001;28;20048;-64
2022/03/22 09:07:58;;;;;;;34.85;22.92;;;17.10;94.70;;;;;;5096428;28;20130;-64
2022/03/22 09:10:25;;;;;;;34.85;23.33;;;17.60;94.90;;;;;;5110887;28;20053;-64
2022/03/22 09:12:52;;;;;;;31.10;25.00;;;18.30;95.50;;;;;;5111612;28;20465;-64
2022/03/22 09:15:19;;;;;;;33.55;23.50;;;18.70;92.90;;;;;;5111407;28;20048;-64
2022/03/22 09:17:46;;;;;;;30.50;23.60;;;19.00;94.30;;;;;;5112063;28;20043;-62
2022/03/22 09:20:13;;;;;;;30.33;22.58;;;19.20;91.90;;;;;;5111600;28;20050;-63
2022/03/22 09:22:40;;;;;;;33.80;23.17;;;19.50;92.40;;;;;;5111708;28;20409;-63
2022/03/22 09:25:07;;;;;;;35.47;22.95;;;19.30;90.90;;;;;;5111792;28;20128;-63
2022/03/22 09:27:33;;;;;;;30.95;23.00;;;19.00;91.70;;;;;;5093795;28;20101;-63
2022/03/22 09:29:59;;;;;;;28.08;22.33;;;18.60;90.80;;;;;;5111769;28;20040;-64
2022/03/22 09:32:25;;;;;;;26.80;21.92;;;18.30;90.40;;;;;;5093474;28;20044;-62
2022/03/22 09:34:52;;;;;;;29.73;22.80;;;18.10;91.40;;;;;;5111811;28;20051;-64
2022/03/22 09:37:18;;;;;;;33.33;23.38;;;17.70;91.40;;;;;;5111648;28;20120;-64
2022/03/22 09:39:45;;;;;;;33.25;24.25;;;17.40;91.40;;;;;;5093825;28;20047;-64
2022/03/22 09:42:12;;;;;;;28.65;23.20;;;17.20;90.90;;;;;;5111793;28;20063;-64
2022/03/22 09:44:38;;;;;;;34.83;24.10;;;17.20;91.20;;;;;;5111450;28;20035;-63
2022/03/22 09:47:05;;;;;;;30.42;23.98;;;17.30;91.30;;;;;;5112044;28;20389;-63
2022/03/22 09:49:31;;;;;;;31.27;23.30;;;17.30;91.50;;;;;;5111484;28;20043;-63
2022/03/22 09:51:58;;;;;;;31.50;23.00;;;17.30;91.30;;;;;;5111486;28;20512;-63
2022/03/22 09:54:24;;;;;;;33.90;23.40;;;17.30;91.60;;;;;;5111328;28;20079;-62
2022/03/22 09:56:52;;;;;;;34.05;24.13;;;17.40;91.60;;;;;;5109150;28;20048;-62
2022/03/22 09:59:17;;;;;;;32.47;23.40;;;17.40;91.20;;;;;;5110138;28;20056;-62
2022/03/22 10:01:45;;;;;;;34.65;22.90;;;17.40;91.60;;;;;;5110107;28;20056;-63
2022/03/22 10:04:13;;;;;;;31.77;23.02;;;17.40;91.70;;;;;;5093055;28;20408;-61
2022/03/22 10:06:50;;;;;;;32.88;23.08;;;17.40;91.30;;;;;;5110216;28;20624;-62
2022/03/22 10:09:28;;;;;;;33.25;22.70;;;17.30;91.00;;;;;;5110850;28;20421;-61
2022/03/22 10:11:54;;;;;;;31.95;21.38;;;17.30;91.30;;;;;;5093009;28;20043;-62
2022/03/22 10:14:19;;;;;;;31.20;19.48;;;17.30;91.30;;;;;;5111204;28;20093;-63
2022/03/22 10:16:51;;;;;;;31.80;21.15;;;17.30;90.70;;;;;;5110420;28;20139;-63
2022/03/22 10:19:25;;;;;;;32.30;20.55;;;17.30;90.50;;;;;;5111142;28;20144;-64
2022/03/22 10:21:53;;;;;;;31.05;20.40;;;17.40;90.70;;;;;;5113420;28;20123;-64
2022/03/22 10:24:20;;;;;;;37.55;22.75;;;17.50;90.30;;;;;;5079572;28;20138;-64
2022/03/22 10:26:47;;;;;;;29.45;21.15;;;17.50;90.50;;;;;;5095742;28;20058;-64
2022/03/22 10:29:16;;;;;;;32.00;20.58;;;17.60;90.30;;;;;;5114538;28;20054;-64
2022/03/22 10:31:43;;;;;;;32.47;21.48;;;17.60;90.50;;;;;;5114315;28;20078;-63
2022/03/22 10:34:11;;;;;;;31.73;21.70;;;17.60;90.70;;;;;;5114732;28;20079;-63
2022/03/22 10:36:39;;;;;;;30.23;21.27;;;17.60;90.40;;;;;;5113329;28;20528;-64
2022/03/22 10:39:07;;;;;;;34.78;21.58;;;17.60;90.50;;;;;;5114018;28;20050;-62
2022/03/22 10:41:38;;;;;;;31.33;20.77;;;17.70;90.70;;;;;;5113548;28;20127;-63
2022/03/22 10:44:15;;;;;;;30.67;20.08;;;17.70;90.70;;;;;;5113657;28;20429;-63
2022/03/22 10:46:45;;;;;;;25.52;18.98;;;17.60;90.50;;;;;;5113889;28;20048;-63
2022/03/22 10:49:19;;;;;;;27.08;20.50;;;17.60;90.60;;;;;;5096181;28;20485;-63
2022/03/22 10:51:47;;;;;;;35.55;19.10;;;17.60;90.60;;;;;;5113977;28;20036;-63
2022/03/22 10:54:18;;;;;;;29.58;19.85;;;17.60;90.50;;;;;;5113536;28;20122;-63
2022/03/22 10:56:57;;;;;;;28.85;19.67;;;17.60;90.70;;;;;;5113244;28;20040;-63
2022/03/22 10:59:26;;;;;;;32.40;19.65;;;17.70;90.20;;;;;;5113712;28;20039;-62
2022/03/22 11:01:55;;;;;;;27.27;18.13;;;17.70;90.20;;;;;;5113389;28;20138;-62
2022/03/22 11:04:22;;;;;;;26.45;18.40;;;17.80;90.10;;;;;;5113544;28;20056;-63
2022/03/22 11:06:48;;;;;;;31.05;18.75;;;17.90;88.80;;;;;;5095385;28;20078;-62
2022/03/22 11:09:16;;;;;;;30.00;19.00;;;17.80;88.90;;;;;;5113906;28;20172;-63
2022/03/22 11:11:43;;;;;;;29.52;18.08;;;17.90;89.80;;;;;;5113680;28;20052;-62
2022/03/22 11:14:13;;;;;;;28.45;18.92;;;17.80;89.00;;;;;;5113815;28;20047;-63
2022/03/22 11:16:40;;;;;;;31.27;18.38;;;17.90;88.10;;;;;;5113566;28;20058;-62
2022/03/22 11:19:07;;;;;;;28.13;17.27;;;17.90;87.90;;;;;;5095269;28;20128;-63
2022/03/22 11:21:33;;;;;;;28.30;18.70;;;18.00;87.30;;;;;;5095000;28;20146;-64
2022/03/22 11:24:11;;;;;;;30.55;18.30;;;18.00;87.50;;;;;;5095423;28;20094;-63
2022/03/22 11:26:41;;;;;;;31.30;18.35;;;17.90;87.10;;;;;;5113218;28;20043;-63
2022/03/22 11:29:12;;;;;;;27.92;17.42;;;18.00;87.50;;;;;;5078529;28;20056;-64
2022/03/22 11:31:40;;;;;;;27.23;19.27;;;18.10;87.60;;;;;;5112805;28;20129;-62
2022/03/22 11:34:11;;;;;;;29.13;19.90;;;18.10;87.50;;;;;;5113128;28;20051;-63
2022/03/22 11:36:43;;;;;;;29.90;20.00;;;18.10;87.50;;;;;;5112983;28;20055;-63
2022/03/22 11:39:09;;;;;;;31.35;20.38;;;18.20;87.30;;;;;;5113674;28;20047;-64
2022/03/22 11:44:36;;;;;;;;;;;18.30;87.30;;;;;;5095315;28;20047;-64
2022/03/22 11:47:08;;;;;;;26.95;17.40;;;18.30;87.50;;;;;;5113012;28;19919;-63
2022/03/22 11:49:53;;;;;;;32.75;20.80;;;18.40;87.20;;;;;;5113055;28;20133;-65
2022/03/22 11:52:23;;;;;;;29.90;21.23;;;18.30;87.30;;;;;;5113313;28;20122;-63
2022/03/22 11:54:57;;;;;;;34.05;20.63;;;18.30;87.40;;;;;;5112830;28;20099;-64
2022/03/22 11:57:23;;;;;;;;;;;18.30;86.50;;;;;;5079035;28;20061;-63
2022/03/22 11:59:52;;;;;;;28.83;18.67;;;18.30;87.20;;;;;;5094575;28;19939;-63
2022/03/22 12:02:21;;;;;;;30.73;19.77;;;18.40;86.70;;;;;;5113179;28;20476;-64
2022/03/22 12:04:52;;;;;;;31.77;20.17;;;18.40;87.10;;;;;;5112695;28;20135;-64
2022/03/22 12:07:23;;;;;;;33.22;20.52;;;18.40;86.50;;;;;;5113134;28;20044;-63
2022/03/22 12:09:49;;;;;;;32.90;19.27;;;18.40;86.00;;;;;;5112602;28;20135;-63
2022/03/22 12:12:16;;;;;;;29.15;17.70;;;18.40;86.00;;;;;;5112950;28;20118;-64
2022/03/22 12:14:45;;;;;;;28.20;19.40;;;18.50;85.00;;;;;;5112586;28;20047;-64
2022/03/22 12:17:12;;;;;;;29.98;16.27;;;18.50;84.80;;;;;;5094996;28;20048;-63
2022/03/22 12:19:38;;;;;;;29.63;17.42;;;18.50;84.80;;;;;;5111835;28;20489;-64
2022/03/22 12:22:08;;;;;;;30.02;19.77;;;18.50;85.30;;;;;;5111692;28;20116;-64
2022/03/22 12:24:35;;;;;;;30.77;19.00;;;18.50;84.80;;;;;;5112712;28;20096;-63
2022/03/22 12:27:08;;;;;;;31.27;19.15;;;18.50;84.80;;;;;;5112928;28;20051;-64
2022/03/22 12:29:54;;;;;;;26.98;16.30;;;18.50;84.60;;;;;;5112616;28;20043;-63
2022/03/22 12:32:22;;;;;;;32.92;19.50;;;18.60;84.60;;;;;;5094905;28;20055;-64
2022/03/22 12:34:48;;;;;;;33.33;20.23;;;18.50;84.20;;;;;;5094185;28;20477;-62
2022/03/22 12:37:18;;;;;;;28.90;19.02;;;18.60;84.80;;;;;;5094491;28;20050;-62
2022/03/22 12:39:46;;;;;;;32.67;19.17;;;18.60;84.90;;;;;;5112042;28;20047;-63
2022/03/22 12:42:14;;;;;;;34.08;18.75;;;18.60;84.80;;;;;;5112466;28;20358;-63
2022/03/22 12:44:41;;;;;;;31.20;18.88;;;18.60;84.00;;;;;;5111264;28;20173;-66
2022/03/22 12:47:08;;;;;;;29.38;18.02;;;18.50;84.20;;;;;;5112312;28;20043;-63
2022/03/22 12:49:37;;;;;;;28.88;17.45;;;18.50;83.20;;;;;;5112356;28;20040;-63
2022/03/22 12:52:03;;;;;;;28.85;19.00;;;18.50;83.50;;;;;;5094278;28;20090;-65
2022/03/22 12:54:37;;;;;;;34.72;18.15;;;18.60;83.30;;;;;;5093998;28;20136;-65
2022/03/22 12:57:09;;;;;;;29.70;17.05;;;18.60;83.00;;;;;;5077532;28;20051;-64
2022/03/22 12:59:36;;;;;;;29.65;19.67;;;18.60;81.90;;;;;;5112203;28;20131;-63
2022/03/22 13:02:06;;;;;;;28.77;18.27;;;18.60;82.00;;;;;;5111669;28;20059;-64